Terminal Aerodrome Forecast
Issued by NWS Sterling, VA

Home | Current Version | Previous Version | Text Only | Print | Product List | Glossary On
Versions: 1 2 3 4 5 6 7 8 9 10 11 12 13 14 15 16 17 18 19 20 21 22 23
000
FTUS41 KLWX 222300 RRA
TAFIAD
TAF
KIAD 222341Z 2300/2406 12006KT P6SM SCT030 BKN100
     FM230400 13011KT 5SM BR SCT030 OVC070
     FM230700 12013KT 5SM BR OVC015
     FM231000 11009KT 3SM BR OVC008
     FM231500 11009KT 6SM BR BKN015
     FM231700 12008KT P6SM BKN035
     FM240500 11004KT P6SM OVC050=

USA.gov is the U.S. government's official web portal to all federal, state and local government web resources and services.